createdAt,value
2022-08-16T00:00:38.759Z,21.68
2022-08-16T00:01:42.231Z,21.44
2022-08-16T00:02:49.093Z,21.38
2022-08-16T00:03:53.192Z,21.38
2022-08-16T00:04:59.622Z,21.09
2022-08-16T00:06:03.344Z,20.93
2022-08-16T00:07:07.988Z,20.86
2022-08-16T00:08:36.508Z,20.81
2022-08-16T00:09:41.725Z,20.85
2022-08-16T00:10:45.061Z,20.87
2022-08-16T00:11:52.826Z,21.02
2022-08-16T00:12:59.003Z,21.35
2022-08-16T00:14:02.376Z,21.39
2022-08-16T00:15:17.081Z,21.29
2022-08-16T00:17:05.688Z,21.20
2022-08-16T00:17:56.171Z,21.02
2022-08-16T00:19:00.973Z,20.83
2022-08-16T00:20:12.431Z,20.88
2022-08-16T00:21:15.846Z,20.80
2022-08-16T00:22:20.815Z,20.82
2022-08-16T00:23:40.163Z,20.86
2022-08-16T00:24:46.731Z,20.78
2022-08-16T00:26:35.740Z,20.61
2022-08-16T00:27:13.066Z,20.59
2022-08-16T00:28:22.002Z,20.68
2022-08-16T00:29:32.801Z,20.78
2022-08-16T00:30:36.281Z,20.90
2022-08-16T00:31:59.867Z,21.03
2022-08-16T00:33:08.412Z,20.92
2022-08-16T00:34:18.256Z,21.00
2022-08-16T00:35:26.371Z,21.05
2022-08-16T00:36:32.265Z,21.06
2022-08-16T00:37:56.679Z,20.95
2022-08-16T00:38:58.853Z,20.86
2022-08-16T00:40:06.519Z,20.88
2022-08-16T00:41:31.148Z,20.82
2022-08-16T00:42:41.551Z,20.63
2022-08-16T00:43:44.564Z,20.55
2022-08-16T00:44:56.011Z,20.56
2022-08-16T00:46:22.463Z,20.54
2022-08-16T00:47:40.302Z,20.56
2022-08-16T00:48:46.938Z,20.28
2022-08-16T00:49:56.480Z,20.35
2022-08-16T00:51:01.115Z,20.45
2022-08-16T00:52:05.775Z,20.60
2022-08-16T00:53:30.785Z,20.54
2022-08-16T00:54:34.289Z,20.36
2022-08-16T00:55:42.264Z,20.39
2022-08-16T00:56:57.474Z,20.68
2022-08-16T00:58:02.468Z,20.77
2022-08-16T00:59:09.246Z,20.97
2022-08-16T01:00:13.943Z,21.07
2022-08-16T01:01:23.266Z,20.94
2022-08-16T01:02:31.823Z,20.83
2022-08-16T01:03:37.572Z,20.80
2022-08-16T01:05:09.691Z,20.64
2022-08-16T01:06:40.321Z,20.66
2022-08-16T01:07:51.192Z,20.76
2022-08-16T01:09:00.430Z,20.83
2022-08-16T01:10:04.337Z,20.86
2022-08-16T01:11:24.231Z,20.67
2022-08-16T01:12:27.397Z,20.53
2022-08-16T01:13:33.679Z,20.48
2022-08-16T01:14:49.443Z,20.56
2022-08-16T01:16:03.156Z,20.48
2022-08-16T01:17:08.489Z,20.46
2022-08-16T01:18:39.474Z,20.43
2022-08-16T01:19:46.457Z,20.39
2022-08-16T01:21:22.660Z,20.49
2022-08-16T01:22:58.904Z,20.59
2022-08-16T01:24:02.458Z,20.61
2022-08-16T01:25:23.819Z,20.43
2022-08-16T01:26:38.974Z,20.35
2022-08-16T01:27:48.475Z,20.27
2022-08-16T01:28:52.159Z,20.22
2022-08-16T01:30:20.659Z,20.28
2022-08-16T01:31:31.002Z,20.48
2022-08-16T01:32:38.935Z,20.56
2022-08-16T01:33:44.626Z,20.56
2022-08-16T01:34:53.696Z,20.39
2022-08-16T01:36:12.181Z,20.17
2022-08-16T01:37:16.137Z,20.06
2022-08-16T01:38:25.844Z,20.10
2022-08-16T01:39:35.369Z,20.26
2022-08-16T01:40:38.683Z,20.21
2022-08-16T01:41:42.324Z,20.15
2022-08-16T01:42:53.906Z,20.06
2022-08-16T01:44:00.964Z,19.96
2022-08-16T01:45:05.879Z,20.03
2022-08-16T01:46:37.073Z,20.30
2022-08-16T01:47:49.365Z,20.38
2022-08-16T01:48:59.187Z,20.19
2022-08-16T01:50:59.660Z,20.07
2022-08-16T01:51:27.428Z,20.02
2022-08-16T01:52:31.571Z,19.89
2022-08-16T01:53:36.318Z,19.85
2022-08-16T01:54:47.124Z,19.78
2022-08-16T01:55:53.890Z,19.77
2022-08-16T01:56:57.726Z,19.88
2022-08-16T01:58:01.845Z,20.03
2022-08-16T01:59:15.627Z,20.02
2022-08-16T02:00:19.844Z,20.01
2022-08-16T02:01:23.362Z,19.94
2022-08-16T02:02:32.083Z,19.87
2022-08-16T02:03:35.553Z,19.69
2022-08-16T02:04:54.364Z,19.66
2022-08-16T02:05:57.818Z,19.98
2022-08-16T02:07:04.146Z,20.31
2022-08-16T02:08:09.272Z,20.36
2022-08-16T02:09:33.825Z,20.44
2022-08-16T02:10:38.038Z,20.43
2022-08-16T02:11:48.387Z,20.41
2022-08-16T02:13:00.002Z,20.27
2022-08-16T02:14:05.595Z,20.15
2022-08-16T02:15:25.822Z,20.05
2022-08-16T02:16:28.995Z,20.04
2022-08-16T02:17:32.077Z,20.12
2022-08-16T02:18:36.990Z,20.15
2022-08-16T02:19:59.454Z,20.19
2022-08-16T02:21:05.410Z,20.18
2022-08-16T02:22:34.975Z,20.10
2022-08-16T02:23:37.664Z,20.02
2022-08-16T02:24:46.026Z,19.95
2022-08-16T02:25:52.176Z,19.85
2022-08-16T02:26:56.681Z,19.87
2022-08-16T02:28:00.370Z,19.94
2022-08-16T02:29:04.402Z,19.94
2022-08-16T02:30:36.561Z,19.88
2022-08-16T02:32:03.300Z,19.85
2022-08-16T02:33:08.488Z,19.81
2022-08-16T02:34:12.532Z,19.72
2022-08-16T02:35:16.024Z,19.64
2022-08-16T02:36:48.139Z,19.62
2022-08-16T02:37:52.540Z,19.64
2022-08-16T02:38:56.192Z,19.58
2022-08-16T02:40:00.038Z,19.52
2022-08-16T02:41:09.519Z,19.50
2022-08-16T02:42:12.642Z,19.53
2022-08-16T02:43:15.824Z,19.50
2022-08-16T02:44:19.640Z,19.52
2022-08-16T02:45:27.705Z,19.49
2022-08-16T02:46:33.639Z,19.50
2022-08-16T02:48:00.264Z,19.57
2022-08-16T02:49:02.293Z,19.70
2022-08-16T02:50:55.563Z,19.93
2022-08-16T02:51:29.578Z,20.06
2022-08-16T02:52:34.647Z,19.93
2022-08-16T02:53:41.220Z,19.73
2022-08-16T02:54:46.413Z,19.62
2022-08-16T02:55:59.389Z,19.57
2022-08-16T02:57:04.713Z,19.56
2022-08-16T02:58:11.864Z,19.53
2022-08-16T02:59:18.508Z,19.53
2022-08-16T03:00:34.321Z,19.66
2022-08-16T03:01:39.336Z,19.65
2022-08-16T03:02:47.317Z,19.71
2022-08-16T03:04:39.762Z,19.74
2022-08-16T03:05:24.467Z,19.62
2022-08-16T03:06:41.339Z,19.46
2022-08-16T03:07:50.603Z,19.41
2022-08-16T03:08:56.181Z,19.40
2022-08-16T03:10:00.606Z,19.40
2022-08-16T03:11:04.394Z,19.48
2022-08-16T03:12:07.810Z,19.47
2022-08-16T03:13:12.551Z,19.42
2022-08-16T03:14:21.279Z,19.41
2022-08-16T03:15:27.850Z,19.56
2022-08-16T03:16:38.336Z,19.61
2022-08-16T03:17:53.099Z,19.64
2022-08-16T03:18:57.398Z,19.69
2022-08-16T03:20:02.947Z,19.68
2022-08-16T03:21:07.541Z,19.72
2022-08-16T03:22:13.292Z,19.77
2022-08-16T03:23:22.950Z,19.80
2022-08-16T03:24:29.279Z,19.51
2022-08-16T03:25:41.154Z,19.38
2022-08-16T03:26:47.840Z,19.22
2022-08-16T03:27:54.376Z,19.23
2022-08-16T03:28:59.958Z,19.23
2022-08-16T03:30:17.891Z,19.20
2022-08-16T03:31:21.178Z,19.20
2022-08-16T03:32:24.032Z,19.21
2022-08-16T03:33:29.918Z,19.23
2022-08-16T03:34:36.127Z,19.23
2022-08-16T03:35:41.328Z,19.25
2022-08-16T03:36:44.473Z,19.27
2022-08-16T03:38:02.555Z,19.25
2022-08-16T03:39:14.897Z,19.26
2022-08-16T03:40:31.835Z,19.26
2022-08-16T03:41:49.842Z,19.44
2022-08-16T03:43:00.581Z,19.61
2022-08-16T03:44:44.615Z,19.75
2022-08-16T03:45:44.138Z,19.87
2022-08-16T03:46:50.167Z,19.89
2022-08-16T03:47:58.308Z,19.82
2022-08-16T03:49:05.152Z,19.69
2022-08-16T03:50:26.106Z,19.48
2022-08-16T03:51:29.882Z,19.43
2022-08-16T03:52:33.451Z,19.43
2022-08-16T03:53:38.476Z,19.47
2022-08-16T03:54:57.722Z,19.55
2022-08-16T03:56:02.143Z,19.56
2022-08-16T03:57:06.177Z,19.56
2022-08-16T03:58:16.680Z,19.56
2022-08-16T03:59:19.819Z,19.57
2022-08-16T04:00:35.946Z,19.57
2022-08-16T04:01:44.174Z,19.59
2022-08-16T04:02:48.580Z,19.57
2022-08-16T04:03:52.729Z,19.51
2022-08-16T04:04:56.057Z,19.56
2022-08-16T04:05:59.938Z,19.64
2022-08-16T04:07:07.438Z,19.67
2022-08-16T04:08:23.442Z,19.85
2022-08-16T04:09:27.731Z,20.02
2022-08-16T04:10:37.097Z,20.16
2022-08-16T04:11:41.021Z,20.20
2022-08-16T04:12:53.741Z,20.18
2022-08-16T04:13:59.246Z,20.03
2022-08-16T04:15:16.823Z,20.08
2022-08-16T04:16:26.118Z,19.82
2022-08-16T04:17:30.376Z,19.76
2022-08-16T04:18:37.314Z,19.85
2022-08-16T04:19:45.542Z,19.96
2022-08-16T04:20:48.843Z,20.11
2022-08-16T04:21:56.779Z,20.27
2022-08-16T04:23:00.778Z,20.24
2022-08-16T04:24:07.808Z,20.07
2022-08-16T04:25:13.045Z,19.93
2022-08-16T04:26:16.664Z,19.92
2022-08-16T04:27:24.393Z,19.85
2022-08-16T04:28:56.819Z,19.87
2022-08-16T04:29:55.163Z,19.95
2022-08-16T04:31:10.525Z,19.93
2022-08-16T04:32:13.992Z,19.96
2022-08-16T04:33:16.930Z,19.93
2022-08-16T04:34:19.838Z,19.86
2022-08-16T04:35:27.811Z,19.81
2022-08-16T04:36:37.499Z,19.83
2022-08-16T04:37:41.843Z,19.88
2022-08-16T04:38:50.122Z,19.98
2022-08-16T04:39:59.150Z,20.06
2022-08-16T04:41:01.982Z,20.19
2022-08-16T04:42:10.929Z,20.17
2022-08-16T04:43:17.592Z,20.20
2022-08-16T04:44:53.180Z,20.21
2022-08-16T04:45:47.736Z,20.23
2022-08-16T04:47:21.872Z,20.11
2022-08-16T04:48:32.478Z,20.02
2022-08-16T04:49:38.697Z,20.13
2022-08-16T04:50:49.529Z,20.23
2022-08-16T04:51:53.966Z,20.35
2022-08-16T04:52:59.698Z,20.61
2022-08-16T04:54:02.472Z,20.72
2022-08-16T04:55:13.895Z,20.69
2022-08-16T04:56:19.925Z,20.65
2022-08-16T04:57:23.350Z,20.55
2022-08-16T04:58:44.198Z,20.53
2022-08-16T04:59:49.284Z,20.53
2022-08-16T05:00:57.988Z,20.57
2022-08-16T05:02:02.293Z,20.50
2022-08-16T05:03:26.127Z,20.51
2022-08-16T05:04:30.039Z,20.46
2022-08-16T05:05:36.829Z,20.45
2022-08-16T05:06:48.626Z,20.47
2022-08-16T05:07:58.474Z,20.71
2022-08-16T05:09:05.049Z,20.92
2022-08-16T05:10:19.496Z,20.97
2022-08-16T05:11:25.431Z,21.00
2022-08-16T05:12:35.908Z,20.99
2022-08-16T05:13:43.464Z,20.94
2022-08-16T05:15:02.044Z,20.89
2022-08-16T05:16:06.464Z,20.76
2022-08-16T05:17:18.374Z,20.73
2022-08-16T05:18:27.466Z,20.68
2022-08-16T05:19:35.978Z,20.59
2022-08-16T05:21:01.467Z,20.61
2022-08-16T05:22:06.234Z,20.65
2022-08-16T05:23:21.126Z,20.77
2022-08-16T05:24:24.846Z,20.79
2022-08-16T05:25:40.827Z,20.83
2022-08-16T05:26:51.699Z,20.90
2022-08-16T05:27:56.553Z,20.90
2022-08-16T05:29:04.461Z,20.87
2022-08-16T05:30:34.744Z,20.93
2022-08-16T05:31:32.066Z,21.01
2022-08-16T05:32:47.507Z,21.06
2022-08-16T05:33:53.542Z,21.15
2022-08-16T05:34:57.645Z,21.23
2022-08-16T05:36:03.766Z,21.18
2022-08-16T05:37:06.983Z,21.04
2022-08-16T05:38:32.879Z,20.86
2022-08-16T05:39:33.552Z,20.79
2022-08-16T05:40:59.696Z,20.85
2022-08-16T05:42:03.393Z,20.81
2022-08-16T05:43:06.319Z,20.86
2022-08-16T05:44:24.192Z,20.92
2022-08-16T05:45:27.788Z,21.09
2022-08-16T05:46:32.606Z,21.40
2022-08-16T05:47:43.430Z,21.47
2022-08-16T05:48:54.728Z,21.51
2022-08-16T05:49:58.530Z,21.60
2022-08-16T05:51:01.591Z,21.59
2022-08-16T05:52:05.122Z,21.58
2022-08-16T05:53:14.474Z,21.49
2022-08-16T05:54:25.059Z,21.46
2022-08-16T05:55:28.759Z,21.42
2022-08-16T05:56:34.294Z,21.24
2022-08-16T05:57:41.883Z,21.03
2022-08-16T05:58:46.453Z,20.69
2022-08-16T05:59:59.724Z,20.59
2022-08-16T06:01:04.800Z,20.83
2022-08-16T06:02:09.369Z,21.13
2022-08-16T06:03:12.960Z,20.97
2022-08-16T06:04:35.260Z,20.76
2022-08-16T06:05:41.364Z,20.72
2022-08-16T06:06:55.688Z,20.85
2022-08-16T06:08:04.125Z,21.16
2022-08-16T06:09:15.184Z,21.42
2022-08-16T06:10:33.201Z,21.48
2022-08-16T06:11:40.146Z,21.38
2022-08-16T06:12:46.054Z,21.19
2022-08-16T06:13:56.302Z,21.03
2022-08-16T06:15:08.086Z,21.00
2022-08-16T06:16:18.078Z,21.15
2022-08-16T06:17:23.530Z,21.02
2022-08-16T06:18:30.345Z,21.05
2022-08-16T06:19:33.781Z,21.31
2022-08-16T06:20:55.674Z,21.20
2022-08-16T06:21:59.121Z,21.13
2022-08-16T06:23:04.023Z,21.30
2022-08-16T06:24:52.551Z,20.94
2022-08-16T06:25:39.609Z,20.91
2022-08-16T06:26:57.371Z,20.93
2022-08-16T06:28:08.759Z,20.73
2022-08-16T06:29:13.093Z,20.56
2022-08-16T06:30:19.817Z,20.85
2022-08-16T06:31:29.130Z,20.98
2022-08-16T06:32:36.986Z,20.89
2022-08-16T06:33:45.868Z,20.55
2022-08-16T06:34:57.191Z,20.79
2022-08-16T06:36:05.678Z,20.77
2022-08-16T06:37:11.671Z,20.62
2022-08-16T06:38:32.740Z,20.61
2022-08-16T06:39:46.669Z,20.75
2022-08-16T06:40:53.724Z,20.62
2022-08-16T06:41:57.904Z,20.72
2022-08-16T06:43:01.695Z,20.59
2022-08-16T06:44:04.917Z,20.62
2022-08-16T06:45:08.130Z,20.27
2022-08-16T06:46:31.339Z,20.42
2022-08-16T06:47:53.589Z,20.44
2022-08-16T06:48:58.629Z,20.50
2022-08-16T06:50:01.541Z,20.00
2022-08-16T06:51:06.507Z,20.02
2022-08-16T06:52:57.997Z,19.91
2022-08-16T06:53:34.842Z,20.23
2022-08-16T06:54:38.678Z,20.28
2022-08-16T06:55:43.427Z,19.74
2022-08-16T06:56:46.661Z,19.96
2022-08-16T06:57:51.676Z,20.04
2022-08-16T06:58:55.907Z,20.01
2022-08-16T06:59:59.202Z,20.12
2022-08-16T07:01:09.904Z,20.29
2022-08-16T07:02:32.507Z,20.10
2022-08-16T07:03:55.655Z,20.29
2022-08-16T07:05:00.169Z,20.26
2022-08-16T07:06:06.622Z,19.79
2022-08-16T07:07:14.685Z,19.69
2022-08-16T07:08:18.136Z,19.80
2022-08-16T07:09:22.604Z,20.21
2022-08-16T07:10:32.603Z,20.23
2022-08-16T07:11:45.756Z,19.85
2022-08-16T07:13:03.136Z,19.68
2022-08-16T07:14:25.650Z,19.69
2022-08-16T07:15:29.654Z,19.50
2022-08-16T07:16:32.553Z,19.80
2022-08-16T07:17:36.532Z,20.18
2022-08-16T07:18:58.871Z,20.15
2022-08-16T07:20:35.595Z,20.18
2022-08-16T07:21:45.793Z,20.07
2022-08-16T07:22:59.032Z,20.30
2022-08-16T07:24:06.191Z,20.43
2022-08-16T07:25:13.195Z,20.45
2022-08-16T07:26:25.609Z,20.45
2022-08-16T07:27:28.901Z,20.35
2022-08-16T07:28:37.424Z,20.24
2022-08-16T07:29:40.662Z,20.29
2022-08-16T07:30:46.996Z,20.22
2022-08-16T07:31:50.144Z,20.37
2022-08-16T07:32:56.911Z,20.47
2022-08-16T07:33:59.900Z,20.71
2022-08-16T07:35:03.053Z,20.90
2022-08-16T07:36:09.722Z,21.00
2022-08-16T07:37:12.878Z,21.02
2022-08-16T07:38:33.868Z,21.08
2022-08-16T07:39:43.268Z,21.19
2022-08-16T07:41:09.377Z,21.30
2022-08-16T07:42:09.391Z,21.29
2022-08-16T07:43:24.469Z,21.31
2022-08-16T07:44:49.160Z,21.34
2022-08-16T07:45:54.351Z,21.44
2022-08-16T07:46:57.281Z,21.41
2022-08-16T07:48:00.885Z,21.37
2022-08-16T07:49:15.339Z,21.27
2022-08-16T07:50:57.921Z,21.40
2022-08-16T07:51:44.390Z,21.57
2022-08-16T07:52:48.950Z,21.70
2022-08-16T07:54:02.510Z,21.76
2022-08-16T07:55:15.682Z,21.67
2022-08-16T07:56:19.679Z,21.57
2022-08-16T07:57:24.289Z,21.56
2022-08-16T07:58:34.695Z,21.54
2022-08-16T07:59:46.229Z,21.65
2022-08-16T08:00:49.642Z,21.68
2022-08-16T08:01:54.546Z,21.72
2022-08-16T08:03:00.704Z,21.96
2022-08-16T08:04:06.277Z,22.21
2022-08-16T08:05:16.062Z,22.10
2022-08-16T08:06:30.405Z,22.29
2022-08-16T08:07:33.554Z,22.25
2022-08-16T08:08:49.137Z,22.11
2022-08-16T08:09:55.423Z,22.10
2022-08-16T08:11:02.009Z,22.19
2022-08-16T08:12:31.857Z,22.36
2022-08-16T08:13:43.472Z,22.54
2022-08-16T08:14:47.583Z,22.67
2022-08-16T08:15:53.157Z,22.84
2022-08-16T08:16:56.232Z,22.96
2022-08-16T08:18:30.783Z,23.08
2022-08-16T08:19:22.901Z,23.25
2022-08-16T08:20:29.510Z,23.38
2022-08-16T08:22:00.111Z,23.60
2022-08-16T08:23:01.617Z,23.72
2022-08-16T08:24:09.342Z,23.98
2022-08-16T08:25:13.155Z,24.10
2022-08-16T08:26:19.912Z,24.18
2022-08-16T08:27:23.683Z,24.18
2022-08-16T08:28:31.112Z,24.06
2022-08-16T08:29:40.151Z,24.06
2022-08-16T08:30:49.238Z,24.12
2022-08-16T08:32:58.338Z,24.13
2022-08-16T08:33:29.562Z,24.15
2022-08-16T08:34:32.437Z,24.14
2022-08-16T08:35:36.029Z,24.19
2022-08-16T08:36:39.575Z,24.28
2022-08-16T08:37:55.320Z,24.39
2022-08-16T08:39:00.429Z,24.59
2022-08-16T08:40:09.533Z,24.71
2022-08-16T08:41:18.627Z,24.87
2022-08-16T08:42:28.940Z,25.01
2022-08-16T08:43:41.596Z,25.06
2022-08-16T08:44:45.232Z,25.10
2022-08-16T08:45:57.001Z,24.95
2022-08-16T08:47:12.064Z,24.82
2022-08-16T08:48:34.112Z,25.05
2022-08-16T08:49:50.400Z,25.32
2022-08-16T08:50:59.103Z,25.56
2022-08-16T08:52:02.681Z,25.70
2022-08-16T08:53:11.755Z,25.86
2022-08-16T08:54:18.832Z,25.93
2022-08-16T08:55:24.263Z,26.02
2022-08-16T08:56:30.316Z,26.13
2022-08-16T08:57:35.495Z,26.24
2022-08-16T08:58:41.081Z,26.17
2022-08-16T08:59:58.284Z,26.32
2022-08-16T09:01:01.617Z,26.54
2022-08-16T09:02:09.093Z,26.62
2022-08-16T09:03:15.123Z,26.60
2022-08-16T09:04:19.122Z,26.76
2022-08-16T09:05:35.739Z,26.78
2022-08-16T09:06:43.704Z,26.90
2022-08-16T09:08:00.576Z,26.92
2022-08-16T09:09:05.324Z,26.98
2022-08-16T09:10:20.919Z,27.15
2022-08-16T09:11:40.779Z,27.19
2022-08-16T09:12:47.473Z,27.25
2022-08-16T09:13:51.149Z,27.03
2022-08-16T09:14:54.447Z,26.97
2022-08-16T09:15:57.322Z,27.25
2022-08-16T09:17:11.480Z,27.18
2022-08-16T09:18:24.918Z,27.17
2022-08-16T09:19:32.800Z,27.45
2022-08-16T09:20:59.048Z,27.60
2022-08-16T09:21:59.901Z,27.76
2022-08-16T09:23:03.624Z,27.93
2022-08-16T09:24:10.044Z,28.08
2022-08-16T09:25:14.636Z,28.18
2022-08-16T09:26:45.318Z,28.19
2022-08-16T09:27:46.781Z,28.26
2022-08-16T09:29:14.505Z,28.41
2022-08-16T09:30:33.781Z,28.48
2022-08-16T09:31:41.123Z,28.51
2022-08-16T09:32:47.028Z,28.81
2022-08-16T09:33:52.099Z,28.95
2022-08-16T09:34:58.344Z,29.03
2022-08-16T09:36:02.084Z,29.08
2022-08-16T09:37:17.962Z,29.08
2022-08-16T09:38:32.519Z,29.12
2022-08-16T09:39:50.306Z,29.31
2022-08-16T09:40:55.745Z,29.42
2022-08-16T09:42:03.204Z,29.55
2022-08-16T09:43:06.468Z,29.69
2022-08-16T09:45:12.703Z,29.60
2022-08-16T09:45:39.239Z,29.52
2022-08-16T09:46:48.178Z,29.78
2022-08-16T09:47:57.269Z,29.87
2022-08-16T09:49:03.502Z,29.87
2022-08-16T09:50:11.746Z,30.10
2022-08-16T09:51:16.099Z,30.13
2022-08-16T09:52:22.510Z,30.12
2022-08-16T09:53:30.464Z,30.15
2022-08-16T09:54:35.283Z,30.30
2022-08-16T09:55:45.362Z,30.38
2022-08-16T09:56:53.825Z,30.50
2022-08-16T09:58:01.242Z,30.58
2022-08-16T09:59:12.116Z,30.61
2022-08-16T10:00:42.200Z,30.80
2022-08-16T10:01:43.506Z,30.79
2022-08-16T10:02:53.069Z,31.00
2022-08-16T10:04:02.254Z,31.06
2022-08-16T10:05:06.839Z,31.10
2022-08-16T10:06:11.265Z,31.20
2022-08-16T10:07:16.236Z,31.18
2022-08-16T10:08:26.329Z,31.26
2022-08-16T10:09:53.656Z,31.34
2022-08-16T10:11:11.967Z,31.36
2022-08-16T10:12:33.745Z,30.93
2022-08-16T10:13:36.554Z,31.37
2022-08-16T10:14:45.907Z,31.46
2022-08-16T10:15:55.114Z,31.69
2022-08-16T10:17:02.429Z,31.74
2022-08-16T10:19:00.233Z,31.31
2022-08-16T10:19:33.054Z,31.58
2022-08-16T10:20:46.190Z,31.84
2022-08-16T10:21:56.358Z,31.77
2022-08-16T10:23:05.866Z,32.13
2022-08-16T10:24:10.766Z,32.21
2022-08-16T10:27:00.648Z,32.28
2022-08-16T10:27:20.629Z,32.12
2022-08-16T10:28:26.227Z,32.31
2022-08-16T10:29:59.978Z,32.42
2022-08-16T10:31:06.696Z,32.14
2022-08-16T10:32:13.390Z,31.58
2022-08-16T10:33:24.006Z,31.36
2022-08-16T10:34:31.113Z,31.48
2022-08-16T10:35:35.660Z,32.04
2022-08-16T10:36:54.299Z,32.54
2022-08-16T10:37:57.882Z,32.83
2022-08-16T10:39:02.990Z,32.84
2022-08-16T10:40:28.630Z,32.94
2022-08-16T10:41:33.592Z,33.06
2022-08-16T10:42:36.731Z,33.02
2022-08-16T10:43:41.714Z,33.06
2022-08-16T10:44:53.470Z,32.92
2022-08-16T10:45:59.961Z,32.69
2022-08-16T10:47:04.954Z,32.50
2022-08-16T10:48:27.045Z,32.88
2022-08-16T10:49:31.259Z,33.25
2022-08-16T10:50:36.430Z,33.20
2022-08-16T10:52:01.360Z,32.31
2022-08-16T10:53:07.460Z,31.11
2022-08-16T10:54:28.509Z,31.47
2022-08-16T10:55:40.691Z,31.05
2022-08-16T10:56:55.564Z,31.34
2022-08-16T10:58:11.511Z,30.81
2022-08-16T10:59:44.968Z,30.51
2022-08-16T11:00:41.487Z,30.45
2022-08-16T11:02:21.778Z,30.09
2022-08-16T11:03:42.577Z,30.12
2022-08-16T11:05:59.484Z,30.20
2022-08-16T11:07:08.357Z,29.97
2022-08-16T11:08:16.435Z,29.56
2022-08-16T11:09:25.811Z,29.51
2022-08-16T11:11:10.524Z,29.28
2022-08-16T11:12:14.299Z,29.39
2022-08-16T11:17:02.173Z,29.57
2022-08-16T11:17:35.407Z,29.65
2022-08-16T11:18:48.316Z,29.29
2022-08-16T11:20:40.743Z,29.32
2022-08-16T11:21:29.249Z,28.85
2022-08-16T11:22:47.335Z,28.75
2022-08-16T11:23:58.197Z,29.00
2022-08-16T11:26:07.715Z,29.10
2022-08-16T11:26:25.077Z,28.40
2022-08-16T11:27:32.699Z,27.36
2022-08-16T11:30:03.048Z,26.77
2022-08-16T11:31:16.314Z,27.07
2022-08-16T11:32:20.314Z,27.48
2022-08-16T11:35:13.838Z,27.40
2022-08-16T11:36:25.149Z,27.74
2022-08-16T11:38:04.494Z,27.60
2022-08-16T11:39:00.684Z,27.66
2022-08-16T11:40:06.656Z,27.45
2022-08-16T11:41:12.278Z,27.50
2022-08-16T11:42:28.652Z,27.63
2022-08-16T11:43:38.252Z,27.66
2022-08-16T11:44:56.298Z,27.56
2022-08-16T11:46:44.189Z,27.78
2022-08-16T11:47:26.476Z,27.97
2022-08-16T11:48:37.634Z,28.15
2022-08-16T11:49:41.514Z,28.44
2022-08-16T11:50:44.690Z,28.71
2022-08-16T11:51:47.543Z,29.02
2022-08-16T11:52:50.690Z,29.28
2022-08-16T11:53:54.579Z,29.61
2022-08-16T11:55:00.294Z,29.85
2022-08-16T11:56:04.318Z,30.10
2022-08-16T11:57:09.707Z,30.26
2022-08-16T11:58:14.957Z,30.52
2022-08-16T11:59:25.369Z,30.90
2022-08-16T12:00:34.053Z,31.30
2022-08-16T12:01:59.162Z,31.44
2022-08-16T12:03:03.537Z,31.38
2022-08-16T12:04:08.149Z,31.49
2022-08-16T12:05:17.473Z,31.06
2022-08-16T12:06:25.132Z,30.62
2022-08-16T12:07:34.029Z,30.51
2022-08-16T12:08:43.591Z,30.91
2022-08-16T12:09:47.295Z,30.44
2022-08-16T12:10:52.423Z,30.60
2022-08-16T12:11:55.500Z,30.74
2022-08-16T12:12:58.473Z,30.83
2022-08-16T12:14:08.271Z,30.84
2022-08-16T12:15:13.446Z,30.07
2022-08-16T12:16:20.646Z,29.91
2022-08-16T12:17:23.755Z,29.93
2022-08-16T12:18:33.613Z,29.48
2022-08-16T12:19:36.810Z,29.45
2022-08-16T12:20:43.603Z,29.07
2022-08-16T12:21:58.129Z,29.08
2022-08-16T12:23:02.340Z,28.41
2022-08-16T12:24:06.221Z,27.63
2022-08-16T12:25:12.660Z,27.60
2022-08-16T12:26:18.834Z,27.51
2022-08-16T12:27:24.514Z,26.47
2022-08-16T12:28:52.054Z,24.07
2022-08-16T12:29:58.390Z,24.32
2022-08-16T12:31:05.628Z,23.22
2022-08-16T12:32:27.203Z,22.89
2022-08-16T12:33:42.970Z,22.83
2022-08-16T12:34:53.143Z,22.16
2022-08-16T12:35:56.732Z,22.19
2022-08-16T12:37:03.589Z,22.69
2022-08-16T12:38:41.425Z,21.82
2022-08-16T12:39:34.533Z,21.97
2022-08-16T12:40:41.958Z,22.49
2022-08-16T12:41:46.806Z,22.08
2022-08-16T12:42:52.893Z,21.62
2022-08-16T12:43:57.193Z,21.99
2022-08-16T12:45:14.191Z,22.27
2022-08-16T12:46:19.062Z,22.37
2022-08-16T12:47:40.595Z,22.59
2022-08-16T12:49:09.443Z,22.81
2022-08-16T12:50:15.411Z,23.14
2022-08-16T12:51:24.229Z,23.39
2022-08-16T12:52:33.791Z,23.86
2022-08-16T12:53:43.910Z,23.73
2022-08-16T12:54:54.989Z,24.01
2022-08-16T12:56:01.284Z,24.26
2022-08-16T12:57:06.989Z,24.29
2022-08-16T12:58:49.202Z,24.70
2022-08-16T12:59:43.130Z,24.75
2022-08-16T13:00:48.715Z,24.80
2022-08-16T13:01:58.223Z,25.17
2022-08-16T13:03:03.420Z,25.17
2022-08-16T13:04:12.491Z,25.05
2022-08-16T13:05:23.780Z,25.13
2022-08-16T13:06:29.296Z,25.60
2022-08-16T13:07:42.347Z,25.71
2022-08-16T13:08:53.986Z,25.61
2022-08-16T13:09:58.634Z,25.87
2022-08-16T13:11:01.980Z,25.86
2022-08-16T13:12:19.021Z,25.62
2022-08-16T13:13:25.861Z,25.57
2022-08-16T13:14:37.360Z,25.98
2022-08-16T13:15:55.588Z,26.35
2022-08-16T13:17:19.213Z,26.65
2022-08-16T13:18:32.331Z,26.87
2022-08-16T13:21:01.800Z,26.58
2022-08-16T13:22:05.835Z,26.99
2022-08-16T13:23:11.712Z,27.28
2022-08-16T13:24:19.495Z,27.39
2022-08-16T13:25:25.922Z,27.28
2022-08-16T13:26:31.342Z,27.30
2022-08-16T13:28:03.126Z,27.70
2022-08-16T13:29:00.392Z,27.72
2022-08-16T13:30:21.794Z,27.95
2022-08-16T13:31:28.437Z,28.10
2022-08-16T13:32:39.430Z,28.07
2022-08-16T13:33:43.220Z,28.26
2022-08-16T13:34:46.932Z,28.53
2022-08-16T13:35:58.057Z,28.72
2022-08-16T13:37:01.371Z,28.81
2022-08-16T13:38:04.432Z,28.71
2022-08-16T13:39:10.401Z,28.82
2022-08-16T13:40:19.757Z,28.93
2022-08-16T13:41:23.491Z,28.97
2022-08-16T13:42:26.766Z,29.09
2022-08-16T13:43:32.512Z,29.10
2022-08-16T13:44:56.270Z,28.77
2022-08-16T13:46:04.634Z,28.74
2022-08-16T13:47:08.566Z,29.12
2022-08-16T13:48:11.799Z,29.13
2022-08-16T13:49:27.431Z,29.22
2022-08-16T13:50:51.335Z,28.91
2022-08-16T13:51:55.137Z,28.73
2022-08-16T13:53:00.555Z,28.88
2022-08-16T13:54:04.317Z,29.13
2022-08-16T13:55:17.635Z,29.25
2022-08-16T13:56:25.139Z,29.43
2022-08-16T13:57:42.907Z,29.28
2022-08-16T13:58:54.836Z,29.45
2022-08-16T13:59:58.454Z,29.71
2022-08-16T14:01:02.505Z,29.46
2022-08-16T14:02:08.740Z,29.18
2022-08-16T14:03:14.759Z,29.48
2022-08-16T14:04:26.264Z,29.46
2022-08-16T14:05:29.807Z,29.51
2022-08-16T14:06:32.830Z,29.68
2022-08-16T14:07:40.541Z,30.02
2022-08-16T14:08:59.208Z,30.20
2022-08-16T14:10:13.109Z,30.41
2022-08-16T14:11:18.561Z,30.28
2022-08-16T14:12:32.867Z,30.49
2022-08-16T14:13:36.952Z,30.35
2022-08-16T14:14:40.069Z,30.62
2022-08-16T14:15:43.103Z,30.73
2022-08-16T14:16:46.039Z,30.81
2022-08-16T14:18:14.785Z,30.87
2022-08-16T14:19:22.333Z,30.64
2022-08-16T14:20:26.216Z,30.80
2022-08-16T14:21:34.949Z,30.70
2022-08-16T14:22:42.557Z,30.67
2022-08-16T14:23:45.579Z,30.68
2022-08-16T14:24:50.719Z,30.74
2022-08-16T14:25:54.539Z,31.03
2022-08-16T14:27:00.354Z,31.19
2022-08-16T14:28:09.704Z,31.34
2022-08-16T14:29:13.285Z,30.92
2022-08-16T14:30:19.175Z,30.75
2022-08-16T14:31:22.442Z,30.74
2022-08-16T14:32:33.069Z,31.08
2022-08-16T14:33:37.307Z,31.40
2022-08-16T14:34:41.078Z,31.48
2022-08-16T14:35:49.335Z,31.64
2022-08-16T14:36:53.791Z,31.48
2022-08-16T14:37:57.404Z,31.67
2022-08-16T14:39:01.770Z,31.63
2022-08-16T14:40:10.267Z,31.45
2022-08-16T14:41:16.115Z,31.07
2022-08-16T14:42:25.401Z,31.11
2022-08-16T14:43:29.738Z,30.83
2022-08-16T14:44:33.838Z,30.78
2022-08-16T14:45:37.201Z,30.96
2022-08-16T14:46:40.249Z,31.10
2022-08-16T14:47:46.021Z,30.64
2022-08-16T14:48:56.714Z,30.40
2022-08-16T14:49:59.699Z,30.24
2022-08-16T14:51:02.818Z,30.03
2022-08-16T14:52:09.820Z,30.04
2022-08-16T14:53:13.989Z,30.06
2022-08-16T14:54:20.200Z,30.07
2022-08-16T14:55:27.634Z,29.91
2022-08-16T14:56:38.935Z,29.61
2022-08-16T14:57:46.394Z,29.52
2022-08-16T14:58:52.555Z,29.51
2022-08-16T14:59:55.794Z,29.36
2022-08-16T15:01:01.907Z,29.13
2022-08-16T15:02:17.288Z,29.22
2022-08-16T15:03:37.809Z,29.28
2022-08-16T15:04:48.051Z,29.31
2022-08-16T15:05:53.906Z,29.31
2022-08-16T15:06:58.495Z,29.41